VEAT/IXA METAR and TAF weather

Enter ICAO airport designator
Station Type Date Time Source
VEAT METAR 2019/06/18 13:00 UTC NOAA

VEAT 181300Z 00000KT 5000 BR FEW020 SCT100 32/28 Q0999 NOSIG


Station Type Date Time Source
VEAT Decoded METAR 2019/06/18 13:00 UTC NOAA

Agartala, India (VEAT) 23-53N 091-15E 16M
Jun 18, 2019 - 09:00 AM EDT / 2019.06.18 1300 UTC
Wind: Calm:0
Visibility: 3 mile(s):0
Sky conditions: partly cloudy
Weather: mist
Temperature: 89 F (32 C)
Heat index: 109.0 F (42.8 C):1
Dew Point: 82 F (28 C)
Relative Humidity: 79%
Pressure (altimeter): 29.50 in. Hg (0999 hPa)
ob: VEAT 181300Z 00000KT 5000 BR FEW020 SCT100 32/28 Q0999 NOSIG
cycle: 13

Station Type Date Time Source
VEAT TAF 2013/07/19 12:00 UTC NOAA

TAF VEAT 190900Z 1912/1921 16008KT 5000 HZ SCT018 FEW030CB BKN100
TEMPO 1912/1921 3000 -TSRA SCT015 FEW025CB OVC090

Example: see airport list